createdAt,value
2023-11-29T00:02:04.369Z,5.22
2023-11-29T00:04:31.034Z,5.72
2023-11-29T00:06:57.603Z,7.50
2023-11-29T00:09:24.230Z,5.88
2023-11-29T00:11:50.833Z,4.60
2023-11-29T00:14:17.424Z,3.80
2023-11-29T00:16:45.740Z,2.97
2023-11-29T00:19:13.113Z,3.90
2023-11-29T00:21:43.465Z,4.15
2023-11-29T00:24:10.770Z,3.17
2023-11-29T00:26:37.436Z,2.92
2023-11-29T00:29:04.348Z,3.33
2023-11-29T00:31:31.070Z,3.42
2023-11-29T00:33:57.667Z,3.20
2023-11-29T00:36:25.380Z,2.90
2023-11-29T00:38:51.984Z,2.75
2023-11-29T00:41:18.777Z,2.47
2023-11-29T00:43:45.870Z,2.90
2023-11-29T00:46:12.531Z,3.38
2023-11-29T00:48:39.127Z,2.50
2023-11-29T00:51:07.362Z,3.17
2023-11-29T00:53:33.968Z,2.80
2023-11-29T00:56:00.563Z,2.95
2023-11-29T00:58:27.248Z,3.70
2023-11-29T01:00:53.956Z,4.07
2023-11-29T01:03:20.651Z,4.20
2023-11-29T01:05:47.233Z,3.78
2023-11-29T01:08:13.802Z,4.30
2023-11-29T01:10:41.039Z,4.15
2023-11-29T01:13:07.867Z,4.45
2023-11-29T01:15:34.520Z,4.20
2023-11-29T01:18:01.188Z,3.85
2023-11-29T01:20:27.860Z,3.83
2023-11-29T01:22:54.489Z,3.83
2023-11-29T01:25:21.052Z,4.65
2023-11-29T01:27:48.349Z,3.65
2023-11-29T01:30:15.080Z,4.28
2023-11-29T01:32:41.744Z,4.47
2023-11-29T01:35:08.612Z,4.88
2023-11-29T01:37:35.760Z,5.60
2023-11-29T01:40:03.156Z,5.57
2023-11-29T01:42:29.718Z,5.20
2023-11-29T01:44:56.349Z,4.80
2023-11-29T01:47:23.811Z,4.63
2023-11-29T01:49:51.567Z,5.82
2023-11-29T01:52:19.231Z,5.93
2023-11-29T01:54:45.886Z,5.88
2023-11-29T01:57:14.095Z,6.40
2023-11-29T01:59:40.716Z,6.10
2023-11-29T02:02:07.983Z,5.93
2023-11-29T02:04:34.821Z,6.68
2023-11-29T02:07:03.360Z,5.80
2023-11-29T02:09:30.041Z,4.40
2023-11-29T02:11:56.862Z,5.10
2023-11-29T02:14:23.523Z,4.90
2023-11-29T02:16:50.983Z,4.93
2023-11-29T02:19:17.643Z,4.38
2023-11-29T02:21:44.480Z,4.43
2023-11-29T02:24:19.409Z,4.82
2023-11-29T02:26:46.537Z,4.00
2023-11-29T02:29:13.588Z,4.43
2023-11-29T02:31:40.234Z,4.43
2023-11-29T02:34:06.891Z,3.78
2023-11-29T02:36:33.507Z,3.28
2023-11-29T02:39:00.047Z,3.03
2023-11-29T02:41:26.671Z,3.53
2023-11-29T02:43:56.534Z,3.25
2023-11-29T02:46:23.972Z,2.60
2023-11-29T02:48:50.641Z,3.08
2023-11-29T02:51:17.237Z,2.80
2023-11-29T02:53:43.805Z,2.67
2023-11-29T02:56:10.931Z,3.30
2023-11-29T02:58:37.644Z,1.88
2023-11-29T03:01:04.290Z,2.40
2023-11-29T03:03:30.913Z,2.20
2023-11-29T03:05:57.449Z,2.63
2023-11-29T03:08:24.434Z,2.10
2023-11-29T03:10:51.060Z,2.05
2023-11-29T03:13:17.572Z,2.15
2023-11-29T03:15:44.147Z,2.35
2023-11-29T03:18:10.886Z,1.98
2023-11-29T03:20:37.582Z,1.95
2023-11-29T03:23:04.100Z,2.13
2023-11-29T03:25:30.677Z,2.13
2023-11-29T03:27:57.336Z,1.73
2023-11-29T03:30:24.406Z,1.55
2023-11-29T03:32:51.026Z,1.60
2023-11-29T03:35:17.660Z,1.88
2023-11-29T03:37:44.873Z,2.28
2023-11-29T03:40:11.724Z,1.92
2023-11-29T03:42:38.310Z,1.52
2023-11-29T03:45:05.487Z,1.85
2023-11-29T03:47:32.167Z,1.67
2023-11-29T03:49:58.757Z,1.50
2023-11-29T03:52:25.845Z,1.77
2023-11-29T03:54:52.824Z,1.40
2023-11-29T03:57:19.353Z,1.90
2023-11-29T03:59:46.250Z,1.63
2023-11-29T04:02:12.972Z,1.95
2023-11-29T04:04:40.555Z,1.42
2023-11-29T04:07:07.090Z,2.05
2023-11-29T04:09:33.686Z,1.30
2023-11-29T04:12:00.782Z,1.88
2023-11-29T04:14:28.151Z,1.85
2023-11-29T04:16:54.807Z,1.83
2023-11-29T04:19:21.378Z,1.88
2023-11-29T04:21:47.888Z,2.28
2023-11-29T04:24:14.397Z,2.20
2023-11-29T04:26:42.103Z,2.60
2023-11-29T04:29:10.931Z,2.42
2023-11-29T04:31:38.680Z,3.17
2023-11-29T04:34:13.539Z,3.10
2023-11-29T04:36:47.972Z,2.67
2023-11-29T04:39:16.304Z,2.75
2023-11-29T04:41:43.947Z,2.83
2023-11-29T04:44:11.111Z,3.20
2023-11-29T04:46:37.714Z,2.90
2023-11-29T04:49:04.365Z,2.90
2023-11-29T04:51:31.116Z,2.80
2023-11-29T04:53:57.961Z,2.63
2023-11-29T04:56:24.645Z,3.00
2023-11-29T04:58:51.330Z,3.45
2023-11-29T05:01:17.989Z,2.88
2023-11-29T05:03:44.821Z,3.60
2023-11-29T05:06:11.514Z,3.40
2023-11-29T05:08:38.451Z,3.05
2023-11-29T05:11:05.764Z,3.33
2023-11-29T05:13:32.985Z,3.00
2023-11-29T05:16:00.706Z,2.63
2023-11-29T05:18:28.028Z,3.40
2023-11-29T05:20:54.868Z,3.17
2023-11-29T05:23:22.464Z,2.47
2023-11-29T05:25:49.280Z,1.92
2023-11-29T05:28:16.074Z,2.67
2023-11-29T05:30:43.571Z,2.33
2023-11-29T05:33:11.057Z,3.17
2023-11-29T05:35:38.055Z,3.20
2023-11-29T05:38:04.782Z,2.70
2023-11-29T05:40:31.659Z,2.65
2023-11-29T05:42:58.682Z,2.58
2023-11-29T05:45:25.235Z,2.72
2023-11-29T05:47:51.835Z,2.97
2023-11-29T05:50:18.651Z,3.40
2023-11-29T05:52:45.228Z,2.97
2023-11-29T05:55:13.041Z,2.50
2023-11-29T05:57:39.606Z,6.38
2023-11-29T06:00:23.740Z,2.90
2023-11-29T06:02:55.747Z,2.65
2023-11-29T06:05:22.554Z,2.72
2023-11-29T06:07:50.011Z,2.78
2023-11-29T06:10:16.804Z,2.97
2023-11-29T06:12:43.382Z,2.60
2023-11-29T06:15:10.212Z,2.95
2023-11-29T06:17:38.247Z,2.38
2023-11-29T06:20:06.131Z,3.25
2023-11-29T06:22:35.757Z,2.40
2023-11-29T06:25:02.444Z,2.65
2023-11-29T06:27:30.434Z,2.53
2023-11-29T06:29:58.353Z,2.60
2023-11-29T06:32:24.991Z,3.40
2023-11-29T06:34:52.370Z,2.75
2023-11-29T06:37:19.080Z,2.80
2023-11-29T06:39:49.973Z,2.75
2023-11-29T06:42:17.284Z,2.92
2023-11-29T06:44:44.090Z,3.40
2023-11-29T06:47:10.765Z,3.13
2023-11-29T06:49:37.612Z,2.72
2023-11-29T06:52:04.824Z,3.10
2023-11-29T06:54:31.546Z,2.90
2023-11-29T06:56:58.211Z,3.00
2023-11-29T06:59:24.914Z,3.47
2023-11-29T07:01:52.014Z,3.92
2023-11-29T07:04:19.332Z,3.40
2023-11-29T07:06:46.008Z,8.30
2023-11-29T07:09:15.199Z,4.43
2023-11-29T07:11:41.935Z,4.85
2023-11-29T07:14:08.883Z,3.55
2023-11-29T07:16:35.642Z,3.90
2023-11-29T07:19:02.265Z,4.22
2023-11-29T07:21:28.892Z,4.18
2023-11-29T07:23:55.667Z,3.95
2023-11-29T07:26:22.378Z,4.45
2023-11-29T07:28:49.117Z,4.65
2023-11-29T07:31:15.979Z,5.47
2023-11-29T07:33:42.629Z,3.85
2023-11-29T07:36:13.442Z,4.28
2023-11-29T07:38:44.063Z,4.20
2023-11-29T07:41:11.151Z,5.55
2023-11-29T07:43:39.020Z,4.97
2023-11-29T07:46:05.961Z,4.78
2023-11-29T07:48:32.644Z,4.20
2023-11-29T07:51:00.573Z,3.90
2023-11-29T07:53:27.600Z,3.88
2023-11-29T07:55:54.159Z,3.85
2023-11-29T07:58:28.171Z,3.80
2023-11-29T08:00:58.364Z,4.00
2023-11-29T08:03:25.487Z,4.15
2023-11-29T08:05:52.216Z,3.60
2023-11-29T08:08:19.191Z,4.97
2023-11-29T08:10:48.296Z,5.10
2023-11-29T08:13:14.967Z,5.47
2023-11-29T08:15:42.364Z,7.18
2023-11-29T08:18:10.687Z,6.30
2023-11-29T08:20:38.224Z,4.65
2023-11-29T08:23:05.233Z,4.47
2023-11-29T08:25:31.872Z,4.20
2023-11-29T08:27:58.467Z,3.67
2023-11-29T08:30:25.806Z,5.07
2023-11-29T08:32:52.627Z,5.82
2023-11-29T08:35:19.389Z,4.78
2023-11-29T08:37:46.057Z,4.35
2023-11-29T08:40:13.269Z,4.55
2023-11-29T08:42:41.062Z,4.13
2023-11-29T08:45:09.806Z,4.22
2023-11-29T08:47:37.282Z,4.03
2023-11-29T08:50:06.538Z,4.40
2023-11-29T08:52:34.029Z,4.10
2023-11-29T08:55:01.337Z,4.53
2023-11-29T08:57:28.019Z,4.63
2023-11-29T08:59:54.801Z,4.07
2023-11-29T09:02:23.013Z,4.30
2023-11-29T09:04:50.492Z,4.70
2023-11-29T09:07:18.317Z,4.20
2023-11-29T09:09:45.550Z,4.43
2023-11-29T09:12:13.558Z,4.32
2023-11-29T09:14:40.493Z,4.20
2023-11-29T09:17:07.511Z,4.15
2023-11-29T09:19:34.549Z,4.80
2023-11-29T09:22:02.963Z,8.68
2023-11-29T09:24:29.664Z,4.03
2023-11-29T09:26:56.362Z,4.25
2023-11-29T09:29:32.109Z,3.30
2023-11-29T09:31:58.723Z,3.90
2023-11-29T09:34:25.688Z,4.65
2023-11-29T09:36:55.077Z,3.33
2023-11-29T09:39:22.018Z,3.35
2023-11-29T09:41:48.783Z,2.97
2023-11-29T09:44:15.771Z,4.00
2023-11-29T09:46:44.185Z,6.57
2023-11-29T09:49:12.381Z,8.70
2023-11-29T09:51:39.477Z,2.22
2023-11-29T09:54:06.134Z,3.42
2023-11-29T09:56:33.611Z,1.73
2023-11-29T09:59:02.363Z,1.60
2023-11-29T10:01:36.311Z,1.02
2023-11-29T10:04:06.797Z,0.95
2023-11-29T10:06:35.866Z,1.30
2023-11-29T10:09:12.726Z,1.13
2023-11-29T10:11:41.031Z,1.00
2023-11-29T10:14:07.947Z,1.00
2023-11-29T10:16:35.151Z,1.17
2023-11-29T10:19:07.318Z,4.13
2023-11-29T10:21:34.402Z,1.13
2023-11-29T10:24:01.029Z,1.02
2023-11-29T10:26:28.980Z,1.10
2023-11-29T10:28:55.825Z,0.68
2023-11-29T10:31:23.496Z,1.02
2023-11-29T10:33:50.856Z,1.15
2023-11-29T10:36:19.997Z,1.00
2023-11-29T10:38:57.770Z,0.73
2023-11-29T10:41:26.671Z,0.77
2023-11-29T10:43:57.530Z,0.80
2023-11-29T10:46:30.260Z,0.60
2023-11-29T10:49:03.346Z,0.80
2023-11-29T10:51:31.590Z,0.60
2023-11-29T10:53:59.781Z,1.05
2023-11-29T10:56:27.654Z,0.90
2023-11-29T10:59:21.124Z,1.45
2023-11-29T11:01:48.812Z,1.13
2023-11-29T11:04:15.474Z,1.15
2023-11-29T11:06:42.632Z,1.05
2023-11-29T11:09:32.749Z,1.75
2023-11-29T11:12:03.687Z,1.95
2023-11-29T11:14:48.566Z,1.52
2023-11-29T11:17:15.901Z,1.40
2023-11-29T11:19:44.134Z,4.40
2023-11-29T11:22:13.343Z,1.45
2023-11-29T11:25:13.110Z,1.30
2023-11-29T11:27:47.972Z,1.00
2023-11-29T11:30:20.818Z,1.02
2023-11-29T11:32:49.578Z,1.23
2023-11-29T11:35:19.488Z,1.00
2023-11-29T11:37:48.587Z,1.15
2023-11-29T11:40:16.795Z,1.35
2023-11-29T11:42:46.110Z,1.20
2023-11-29T11:45:15.516Z,1.40
2023-11-29T11:47:46.062Z,1.33
2023-11-29T11:50:18.331Z,1.10
2023-11-29T11:52:45.281Z,0.88
2023-11-29T11:55:14.102Z,1.50
2023-11-29T11:57:41.278Z,1.40
2023-11-29T12:00:10.360Z,1.50
2023-11-29T12:02:38.679Z,0.98
2023-11-29T12:05:07.480Z,1.15
2023-11-29T12:07:42.867Z,1.50
2023-11-29T12:12:37.765Z,1.30
2023-11-29T12:15:05.106Z,1.92
2023-11-29T12:17:38.826Z,1.60
2023-11-29T12:20:06.703Z,1.23
2023-11-29T12:22:37.518Z,1.10
2023-11-29T12:25:04.404Z,1.00
2023-11-29T12:27:30.967Z,0.98
2023-11-29T12:30:01.286Z,0.98
2023-11-29T12:32:32.178Z,0.80
2023-11-29T12:34:58.990Z,0.95
2023-11-29T12:37:28.039Z,1.00
2023-11-29T12:39:58.548Z,0.90
2023-11-29T12:42:28.073Z,0.82
2023-11-29T12:44:54.708Z,1.00
2023-11-29T12:47:23.479Z,1.48
2023-11-29T12:49:51.045Z,1.17
2023-11-29T12:52:18.142Z,1.02
2023-11-29T12:54:44.962Z,0.95
2023-11-29T12:57:12.964Z,0.82
2023-11-29T12:59:41.043Z,0.90
2023-11-29T13:02:08.074Z,0.90
2023-11-29T13:04:35.036Z,0.77
2023-11-29T13:07:01.715Z,0.90
2023-11-29T13:09:28.388Z,0.98
2023-11-29T13:11:55.360Z,0.85
2023-11-29T13:14:22.035Z,1.20
2023-11-29T13:16:48.665Z,1.02
2023-11-29T13:19:15.506Z,0.80
2023-11-29T13:21:42.824Z,1.08
2023-11-29T13:24:09.821Z,1.13
2023-11-29T13:26:36.528Z,0.90
2023-11-29T13:29:03.191Z,0.70
2023-11-29T13:31:29.915Z,0.40
2023-11-29T13:33:58.127Z,0.55
2023-11-29T13:36:26.958Z,0.50
2023-11-29T13:38:53.968Z,0.95
2023-11-29T13:41:20.774Z,0.52
2023-11-29T13:43:47.391Z,0.73
2023-11-29T13:46:14.849Z,0.40
2023-11-29T13:48:41.604Z,0.80
2023-11-29T13:51:08.670Z,0.40
2023-11-29T13:53:35.683Z,0.30
2023-11-29T13:56:02.398Z,0.30
2023-11-29T13:58:29.777Z,0.43
2023-11-29T14:00:56.520Z,0.57
2023-11-29T14:03:28.139Z,0.55
2023-11-29T14:06:01.329Z,0.57
2023-11-29T14:08:28.881Z,0.57
2023-11-29T14:10:57.974Z,0.90
2023-11-29T14:13:30.406Z,0.63
2023-11-29T14:15:57.443Z,0.60
2023-11-29T14:18:25.149Z,0.63
2023-11-29T14:20:51.857Z,0.68
2023-11-29T14:23:19.653Z,0.63
2023-11-29T14:25:47.704Z,0.80
2023-11-29T14:28:15.905Z,0.43
2023-11-29T14:30:43.111Z,0.60
2023-11-29T14:33:10.036Z,0.88
2023-11-29T14:35:36.823Z,0.57
2023-11-29T14:38:04.430Z,0.60
2023-11-29T14:40:31.509Z,0.73
2023-11-29T14:43:00.114Z,0.95
2023-11-29T14:45:26.654Z,0.75
2023-11-29T14:47:54.184Z,1.00
2023-11-29T14:50:21.311Z,1.00
2023-11-29T14:52:47.994Z,0.93
2023-11-29T14:55:15.294Z,1.00
2023-11-29T14:57:41.905Z,0.80
2023-11-29T15:00:10.700Z,0.80
2023-11-29T15:02:37.590Z,1.20
2023-11-29T15:05:04.407Z,1.33
2023-11-29T15:07:31.015Z,1.13
2023-11-29T15:09:57.600Z,1.48
2023-11-29T15:12:24.119Z,1.15
2023-11-29T15:14:50.717Z,1.30
2023-11-29T15:17:17.889Z,1.20
2023-11-29T15:19:44.530Z,1.17
2023-11-29T15:22:11.608Z,1.00
2023-11-29T15:24:38.270Z,1.48
2023-11-29T15:27:05.748Z,1.35
2023-11-29T15:29:34.331Z,1.00
2023-11-29T15:32:02.051Z,0.88
2023-11-29T15:34:29.094Z,0.93
2023-11-29T15:36:55.694Z,1.20
2023-11-29T15:39:22.487Z,1.20
2023-11-29T15:41:50.023Z,1.10
2023-11-29T15:44:16.573Z,1.10
2023-11-29T15:46:43.501Z,1.00
2023-11-29T15:49:10.269Z,1.08
2023-11-29T15:51:36.897Z,0.90
2023-11-29T15:54:03.751Z,1.50
2023-11-29T15:56:34.579Z,1.42
2023-11-29T15:59:01.935Z,1.38
2023-11-29T16:01:28.614Z,1.63
2023-11-29T16:03:57.079Z,1.40
2023-11-29T16:06:24.036Z,1.40
2023-11-29T16:08:51.372Z,1.30
2023-11-29T16:11:18.064Z,1.38
2023-11-29T16:13:45.609Z,1.52
2023-11-29T16:16:12.471Z,1.52
2023-11-29T16:18:39.527Z,1.40
2023-11-29T16:21:06.657Z,1.50
2023-11-29T16:23:33.327Z,1.40
2023-11-29T16:26:00.777Z,1.52
2023-11-29T16:28:27.976Z,1.80
2023-11-29T16:30:54.863Z,1.58
2023-11-29T16:33:22.581Z,1.50
2023-11-29T16:35:49.265Z,2.45
2023-11-29T16:38:15.914Z,1.40
2023-11-29T16:40:42.707Z,1.48
2023-11-29T16:43:11.465Z,1.67
2023-11-29T16:48:17.923Z,1.73
2023-11-29T16:50:44.602Z,4.88
2023-11-29T16:53:19.438Z,3.08
2023-11-29T16:55:52.498Z,4.25
2023-11-29T16:58:19.353Z,2.55
2023-11-29T17:00:47.465Z,3.45
2023-11-29T17:03:16.061Z,2.47
2023-11-29T17:05:44.103Z,1.90
2023-11-29T17:08:11.313Z,4.15
2023-11-29T17:10:37.956Z,4.13
2023-11-29T17:13:04.603Z,2.30
2023-11-29T17:15:31.146Z,3.22
2023-11-29T17:17:58.423Z,3.28
2023-11-29T17:20:25.802Z,2.60
2023-11-29T17:22:52.388Z,3.08
2023-11-29T17:25:18.976Z,3.88
2023-11-29T17:27:45.581Z,2.80
2023-11-29T17:30:12.700Z,2.45
2023-11-29T17:32:39.623Z,2.20
2023-11-29T17:35:07.721Z,4.35
2023-11-29T17:37:34.314Z,3.05
2023-11-29T17:40:01.048Z,3.75
2023-11-29T17:42:27.723Z,3.65
2023-11-29T17:44:56.274Z,3.08
2023-11-29T17:47:23.860Z,2.28
2023-11-29T17:49:50.405Z,2.80
2023-11-29T17:52:16.968Z,2.13
2023-11-29T17:54:43.604Z,3.95
2023-11-29T17:57:10.846Z,5.55
2023-11-29T17:59:37.449Z,4.47
2023-11-29T18:02:04.413Z,3.47
2023-11-29T18:04:31.209Z,3.08
2023-11-29T18:06:58.158Z,3.03
2023-11-29T18:09:24.947Z,3.33
2023-11-29T18:11:51.646Z,2.65
2023-11-29T18:14:18.198Z,3.40
2023-11-29T18:16:46.642Z,3.22
2023-11-29T18:19:13.314Z,3.22
2023-11-29T18:21:39.832Z,3.95
2023-11-29T18:24:06.795Z,3.50
2023-11-29T18:26:33.366Z,3.40
2023-11-29T18:29:00.182Z,3.78
2023-11-29T18:31:28.300Z,2.63
2023-11-29T18:33:55.485Z,3.00
2023-11-29T18:36:22.149Z,3.03
2023-11-29T18:38:50.716Z,3.80
2023-11-29T18:41:17.510Z,3.58
2023-11-29T18:43:44.230Z,3.65
2023-11-29T18:46:10.894Z,3.60
2023-11-29T18:48:37.712Z,3.80
2023-11-29T18:51:04.492Z,2.90
2023-11-29T18:53:34.205Z,3.42
2023-11-29T18:56:01.154Z,3.38
2023-11-29T18:58:27.764Z,3.70
2023-11-29T19:00:54.358Z,3.67
2023-11-29T19:03:21.432Z,3.75
2023-11-29T19:05:49.217Z,3.90
2023-11-29T19:08:16.502Z,4.10
2023-11-29T19:10:44.708Z,3.22
2023-11-29T19:13:11.569Z,3.38
2023-11-29T19:15:38.191Z,3.47
2023-11-29T19:18:05.172Z,4.10
2023-11-29T19:20:32.381Z,3.42
2023-11-29T19:22:59.310Z,3.25
2023-11-29T19:25:26.334Z,3.67
2023-11-29T19:27:52.968Z,3.70
2023-11-29T19:30:19.877Z,3.65
2023-11-29T19:32:46.571Z,4.47
2023-11-29T19:35:22.423Z,4.43
2023-11-29T19:37:55.254Z,4.00
2023-11-29T19:40:22.163Z,3.25
2023-11-29T19:42:48.802Z,4.10
2023-11-29T19:45:15.446Z,3.60
2023-11-29T19:47:51.195Z,3.97
2023-11-29T19:50:18.009Z,4.93
2023-11-29T19:52:52.142Z,3.63
2023-11-29T19:55:24.119Z,3.97
2023-11-29T19:57:50.720Z,4.05
2023-11-29T20:00:17.791Z,4.95
2023-11-29T20:02:44.418Z,4.22
2023-11-29T20:05:11.037Z,3.22
2023-11-29T20:07:37.628Z,3.33
2023-11-29T20:10:05.201Z,3.22
2023-11-29T20:12:32.399Z,3.47
2023-11-29T20:14:59.091Z,3.40
2023-11-29T20:17:25.874Z,3.42
2023-11-29T20:19:56.739Z,3.28
2023-11-29T20:22:28.055Z,4.15
2023-11-29T20:24:54.616Z,3.38
2023-11-29T20:27:21.957Z,2.85
2023-11-29T20:29:49.062Z,3.67
2023-11-29T20:32:15.713Z,3.25
2023-11-29T20:34:53.095Z,2.88
2023-11-29T20:37:28.898Z,3.75
2023-11-29T20:39:55.546Z,3.88
2023-11-29T20:42:22.157Z,3.53
2023-11-29T20:44:48.749Z,3.78
2023-11-29T20:47:16.827Z,3.45
2023-11-29T20:49:44.997Z,3.03
2023-11-29T20:52:11.686Z,3.33
2023-11-29T20:54:38.646Z,3.30
2023-11-29T20:57:08.567Z,3.50
2023-11-29T20:59:35.914Z,3.45
2023-11-29T21:02:03.017Z,3.47
2023-11-29T21:04:29.755Z,3.90
2023-11-29T21:06:56.544Z,3.03
2023-11-29T21:09:23.374Z,3.13
2023-11-29T21:11:50.013Z,3.25
2023-11-29T21:14:16.715Z,2.55
2023-11-29T21:16:43.270Z,2.90
2023-11-29T21:19:10.033Z,3.35
2023-11-29T21:21:36.738Z,3.05
2023-11-29T21:24:04.202Z,3.28
2023-11-29T21:26:31.014Z,2.67
2023-11-29T21:28:57.708Z,2.28
2023-11-29T21:31:25.333Z,2.70
2023-11-29T21:33:54.597Z,2.10
2023-11-29T21:36:21.306Z,2.50
2023-11-29T21:38:47.970Z,3.05
2023-11-29T21:41:14.533Z,2.65
2023-11-29T21:43:41.259Z,1.90
2023-11-29T21:46:07.876Z,2.92
2023-11-29T21:48:34.985Z,1.92
2023-11-29T21:51:02.918Z,2.00
2023-11-29T21:53:30.420Z,1.77
2023-11-29T21:55:57.220Z,1.63
2023-11-29T21:58:23.826Z,1.70
2023-11-29T22:00:50.608Z,2.15
2023-11-29T22:03:17.200Z,1.55
2023-11-29T22:05:44.423Z,1.77
2023-11-29T22:08:11.128Z,2.03
2023-11-29T22:10:38.225Z,2.05
2023-11-29T22:13:07.917Z,1.50
2023-11-29T22:15:34.645Z,1.70
2023-11-29T22:18:01.942Z,1.48
2023-11-29T22:20:28.632Z,1.23
2023-11-29T22:22:55.213Z,2.00
2023-11-29T22:25:21.747Z,1.50
2023-11-29T22:27:48.406Z,1.42
2023-11-29T22:30:15.347Z,1.48
2023-11-29T22:32:43.002Z,1.30
2023-11-29T22:35:10.355Z,2.00
2023-11-29T22:37:37.079Z,2.15
2023-11-29T22:40:04.345Z,1.40
2023-11-29T22:42:31.006Z,1.77
2023-11-29T22:44:57.750Z,1.65
2023-11-29T22:47:26.240Z,2.30
2023-11-29T22:49:53.236Z,2.55
2023-11-29T22:52:20.379Z,1.33
2023-11-29T22:54:47.309Z,2.13
2023-11-29T22:57:14.393Z,1.50
2023-11-29T22:59:41.290Z,2.30
2023-11-29T23:02:08.557Z,2.35
2023-11-29T23:04:35.257Z,2.03
2023-11-29T23:07:01.957Z,1.42
2023-11-29T23:09:28.608Z,2.03
2023-11-29T23:11:56.532Z,1.95
2023-11-29T23:14:23.365Z,2.22
2023-11-29T23:16:49.900Z,1.50
2023-11-29T23:19:19.108Z,1.55
2023-11-29T23:21:45.679Z,1.63
2023-11-29T23:24:12.764Z,1.60
2023-11-29T23:26:53.652Z,1.80
2023-11-29T23:29:21.140Z,2.15
2023-11-29T23:31:47.885Z,2.47
2023-11-29T23:34:17.906Z,2.15
2023-11-29T23:36:49.633Z,2.33
2023-11-29T23:39:16.488Z,2.85
2023-11-29T23:41:49.907Z,2.03
2023-11-29T23:44:17.196Z,3.60
2023-11-29T23:46:43.794Z,2.58
2023-11-29T23:49:11.403Z,1.67
2023-11-29T23:51:37.922Z,2.00
2023-11-29T23:54:05.294Z,2.03
2023-11-29T23:56:31.893Z,1.98
2023-11-29T23:58:58.551Z,2.33
